This is the latest recevied weather packets stored in our database for station/object OZ7MKS. If no packets are shown the sender has not sent any weather packets the latest 10 day(s).
| Time | Temp. | Humidity | Pressure | Rain* | Wind** | Luminosity | Snow |
|---|---|---|---|---|---|---|---|
| 1778005504 | 8.33° C | 77% | 1012.9 hPa | 0 mm | - | - | - |
| 1778004604 | 8.89° C | 77% | 1012.8 hPa | 0 mm | - | - | - |
| 1778001604 | 10° C | 75% | 1012.6 hPa | 0 mm | - | - | - |
| 1777997103 | 11.67° C | 66% | 1012.7 hPa | 0 mm | - | - | - |
| 1777996804 | 11.67° C | 63% | 1012.7 hPa | 0 mm | - | - | - |
| 1777994404 | 12.22° C | 64% | 1012.7 hPa | 0 mm | - | - | - |
| 1777992004 | 12.22° C | 66% | 1012.5 hPa | 0 mm | - | - | - |
| 1777988404 | 13.89° C | 52% | 1012.6 hPa | 0 mm | - | - | - |
| 1777987204 | 13.89° C | 58% | 1012.5 hPa | 0 mm | - | - | - |
| 1777985404 | 13.89° C | 58% | 1012.5 hPa | 0 mm | - | - | - |
| 1777984804 | 13.89° C | 55% | 1012.4 hPa | 0 mm | - | - | - |
| 1777984504 | 13.89° C | 53% | 1012.4 hPa | 0 mm | - | - | - |
| 1777983904 | 13.89° C | 50% | 1012.4 hPa | 0 mm | - | - | - |
| 1777981804 | 13.33° C | 55% | 1012.5 hPa | 0 mm | - | - | - |
| 1777981504 | 13.33° C | 55% | 1012.4 hPa | 0 mm | - | - | - |
| 1777979404 | 12.78° C | 62% | 1012.5 hPa | 0 mm | - | - | - |
| 1777978504 | 12.78° C | 61% | 1012.6 hPa | 0 mm | - | - | - |
| 1777976704 | 12.78° C | 64% | 1012.5 hPa | 0 mm | - | - | - |
| 1777975204 | 12.22° C | 66% | 1012.4 hPa | 0 mm | - | - | - |
| 1777974604 | 12.22° C | 67% | 1012.4 hPa | 0 mm | - | - | - |
| 1777972804 | 11.67° C | 71% | 1012.6 hPa | 0 mm | - | - | - |
| 1777972504 | 11.67° C | 69% | 1012.6 hPa | 0 mm | - | - | - |
| 1777971904 | 11.67° C | 71% | 1012.6 hPa | 0 mm | - | - | - |
| 1777970404 | 11.11° C | 69% | 1012.7 hPa | 0 mm | - | - | - |
| 1777968903 | 10° C | 72% | 1012.6 hPa | 0 mm | - | - | - |
* Rain latest hour (hover to see other rain measurements)
** Current wind speed in m/s (hover to see current wind gust speed)